Terminal Aerodrome Forecast
Issued by NWS Cleveland, OH

Home | Current Version | Previous Version | Graphics & Text | Print | Product List | Glossary On
Versions: 1 2 3 4 5 6 7 8 9 10 11 12 13 14 15 16 17 18 19 20 21 22 23 24 25
000
FTUS41 KCLE 302300
TAFCAK
TAF
KCAK 302339Z 3100/3124 21011G18KT P6SM SCT040 BKN150
     FM310400 21008KT 6SM -SHRA VCTS BKN035CB OVC120
     FM310800 22008KT 4SM -SHRA BR SCT012 OVC025
     FM311200 23010KT 3SM BR VCSH OVC012
     FM311800 22010KT P6SM BKN020=

USA.gov is the U.S. government's official web portal to all federal, state and local government web resources and services.